createdAt,value
2018-03-17T00:00:27.047Z,88.49
2018-03-17T00:02:58.756Z,89.35
2018-03-17T00:05:28.530Z,89.26
2018-03-17T00:08:24.403Z,88.64
2018-03-17T00:10:58.771Z,89.30
2018-03-17T00:13:29.735Z,88.94
2018-03-17T00:16:11.690Z,89.44
2018-03-17T00:18:41.823Z,87.73
2018-03-17T00:21:14.828Z,88.39
2018-03-17T00:23:45.276Z,87.60
2018-03-17T00:26:18.083Z,89.06
2018-03-17T00:29:01.452Z,88.12
2018-03-17T00:31:33.716Z,87.96
2018-03-17T00:34:18.650Z,88.70
2018-03-17T00:37:00.052Z,89.01
2018-03-17T00:39:33.698Z,89.25
2018-03-17T00:42:03.760Z,89.75
2018-03-17T00:44:43.398Z,89.40
2018-03-17T00:47:19.077Z,89.36
2018-03-17T00:49:49.660Z,88.87
2018-03-17T00:52:27.692Z,89.07
2018-03-17T00:55:08.892Z,88.05
2018-03-17T00:57:41.371Z,87.96
2018-03-17T01:00:32.059Z,88.50
2018-03-17T01:03:18.630Z,89.10
2018-03-17T01:06:01.841Z,89.50
2018-03-17T01:08:46.572Z,89.79
2018-03-17T01:11:18.103Z,90.23
2018-03-17T01:13:52.785Z,90.72
2018-03-17T01:16:26.678Z,91.65
2018-03-17T01:19:01.545Z,91.52
2018-03-17T01:21:31.304Z,92.06
2018-03-17T01:24:19.046Z,92.16
2018-03-17T01:26:59.489Z,92.48
2018-03-17T01:29:38.673Z,92.92
2018-03-17T01:32:08.934Z,93.13
2018-03-17T01:34:42.067Z,93.65
2018-03-17T01:37:16.320Z,94.02
2018-03-17T01:40:00.331Z,93.98
2018-03-17T01:42:44.213Z,94.01
2018-03-17T01:45:26.456Z,94.08
2018-03-17T01:47:58.970Z,94.24
2018-03-17T01:50:32.314Z,94.35
2018-03-17T01:53:19.598Z,94.35
2018-03-17T01:55:51.727Z,94.41
2018-03-17T01:58:22.610Z,94.40
2018-03-17T02:00:56.921Z,94.21
2018-03-17T02:03:31.527Z,94.39
2018-03-17T02:06:04.732Z,94.28
2018-03-17T02:08:38.737Z,94.26
2018-03-17T02:11:18.535Z,94.29
2018-03-17T02:14:07.152Z,94.30
2018-03-17T02:16:49.110Z,94.35
2018-03-17T02:19:21.305Z,94.30
2018-03-17T02:22:10.333Z,94.19
2018-03-17T02:25:02.932Z,94.26
2018-03-17T02:27:50.503Z,94.29
2018-03-17T02:30:26.729Z,94.31
2018-03-17T02:33:06.810Z,94.40
2018-03-17T02:35:37.573Z,94.36
2018-03-17T02:38:22.401Z,94.28
2018-03-17T02:40:56.162Z,94.42
2018-03-17T02:43:26.261Z,94.48
2018-03-17T02:45:59.434Z,94.17
2018-03-17T02:48:38.806Z,94.24
2018-03-17T02:51:09.630Z,94.21
2018-03-17T02:53:40.355Z,94.04
2018-03-17T02:56:26.797Z,94.15
2018-03-17T02:59:01.844Z,94.32
2018-03-17T03:01:39.126Z,94.36
2018-03-17T03:04:21.316Z,94.41
2018-03-17T03:06:51.052Z,94.42
2018-03-17T03:09:21.494Z,94.29
2018-03-17T03:14:56.469Z,94.35
2018-03-17T03:17:30.600Z,94.33
2018-03-17T03:20:01.893Z,94.63
2018-03-17T03:22:37.339Z,94.77
2018-03-17T03:25:08.581Z,94.69
2018-03-17T03:27:52.884Z,94.74
2018-03-17T03:30:29.535Z,94.77
2018-03-17T03:33:00.557Z,94.69
2018-03-17T03:35:31.204Z,94.66
2018-03-17T03:38:06.693Z,94.72
2018-03-17T03:40:38.775Z,95.01
2018-03-17T03:43:16.133Z,95.02
2018-03-17T03:45:48.026Z,95.14
2018-03-17T03:48:32.810Z,95.13
2018-03-17T03:51:11.278Z,95.06
2018-03-17T03:53:42.274Z,95.21
2018-03-17T03:56:23.926Z,95.17
2018-03-17T03:58:56.740Z,95.13
2018-03-17T04:01:30.159Z,95.05
2018-03-17T04:04:00.591Z,95.03
2018-03-17T04:06:33.233Z,95.03
2018-03-17T04:09:04.176Z,95.00
2018-03-17T04:11:35.229Z,95.03
2018-03-17T04:14:09.663Z,94.88
2018-03-17T04:16:42.568Z,94.88
2018-03-17T04:19:25.557Z,94.96
2018-03-17T04:21:56.196Z,95.00
2018-03-17T04:24:33.189Z,95.00
2018-03-17T04:27:07.688Z,94.98
2018-03-17T04:29:37.545Z,94.98
2018-03-17T04:32:27.172Z,94.97
2018-03-17T04:35:14.671Z,94.79
2018-03-17T04:37:59.333Z,94.74
2018-03-17T04:40:32.993Z,94.80
2018-03-17T04:43:07.344Z,94.87
2018-03-17T04:45:40.824Z,94.64
2018-03-17T04:48:14.512Z,94.69
2018-03-17T04:51:02.830Z,94.80
2018-03-17T04:53:42.659Z,94.79
2018-03-17T04:56:14.732Z,94.62
2018-03-17T04:58:47.755Z,94.58
2018-03-17T05:01:17.591Z,94.43
2018-03-17T05:03:47.814Z,94.50
2018-03-17T05:06:24.367Z,94.55
2018-03-17T05:08:55.308Z,94.53
2018-03-17T05:11:25.019Z,94.48
2018-03-17T05:13:54.595Z,94.43
2018-03-17T05:16:24.256Z,94.32
2018-03-17T05:18:55.350Z,94.38
2018-03-17T05:21:24.814Z,94.47
2018-03-17T05:23:55.408Z,94.49
2018-03-17T05:26:25.047Z,94.77
2018-03-17T05:28:54.662Z,94.73
2018-03-17T05:31:24.533Z,94.72
2018-03-17T05:33:54.198Z,94.77
2018-03-17T05:36:24.488Z,94.91
2018-03-17T05:38:54.144Z,94.92
2018-03-17T05:41:24.468Z,94.89
2018-03-17T05:43:54.777Z,94.91
2018-03-17T05:46:25.160Z,94.92
2018-03-17T05:48:55.403Z,94.98
2018-03-17T05:51:25.085Z,95.09
2018-03-17T05:53:54.741Z,95.13
2018-03-17T05:56:24.290Z,95.08
2018-03-17T05:58:53.933Z,94.90
2018-03-17T06:01:23.546Z,94.30
2018-03-17T06:03:53.332Z,93.80
2018-03-17T06:06:22.873Z,93.84
2018-03-17T06:08:53.165Z,93.80
2018-03-17T06:11:22.884Z,93.24
2018-03-17T06:13:53.402Z,92.87
2018-03-17T06:16:23.173Z,92.79
2018-03-17T06:18:53.618Z,92.42
2018-03-17T06:21:23.797Z,91.82
2018-03-17T06:23:54.175Z,91.58
2018-03-17T06:26:23.651Z,91.39
2018-03-17T06:28:54.020Z,91.22
2018-03-17T06:31:23.537Z,91.48
2018-03-17T06:33:53.121Z,91.77
2018-03-17T06:36:22.888Z,92.13
2018-03-17T06:38:52.573Z,92.42
2018-03-17T06:41:22.430Z,92.64
2018-03-17T06:43:52.316Z,92.90
2018-03-17T06:46:21.966Z,92.89
2018-03-17T06:48:51.614Z,92.90
2018-03-17T06:51:22.356Z,92.76
2018-03-17T06:53:52.959Z,92.70
2018-03-17T06:56:22.500Z,93.01
2018-03-17T06:58:52.193Z,93.53
2018-03-17T07:01:21.846Z,93.35
2018-03-17T07:03:52.312Z,93.02
2018-03-17T07:06:21.931Z,92.94
2018-03-17T07:08:52.048Z,92.90
2018-03-17T07:11:22.188Z,92.70
2018-03-17T07:13:51.903Z,92.31
2018-03-17T07:16:21.456Z,92.00
2018-03-17T07:18:51.832Z,91.77
2018-03-17T07:21:21.512Z,90.13
2018-03-17T07:23:51.097Z,89.22
2018-03-17T07:26:21.557Z,89.44
2018-03-17T07:28:51.279Z,87.82
2018-03-17T07:31:21.547Z,88.72
2018-03-17T07:33:51.279Z,88.32
2018-03-17T07:36:22.100Z,88.84
2018-03-17T07:38:52.882Z,89.37
2018-03-17T07:41:23.086Z,89.97
2018-03-17T07:43:52.915Z,89.51
2018-03-17T07:46:23.919Z,89.23
2018-03-17T07:48:55.273Z,88.84
2018-03-17T07:51:27.818Z,87.54
2018-03-17T07:53:57.709Z,86.25
2018-03-17T07:56:29.142Z,86.74
2018-03-17T07:58:58.781Z,86.82
2018-03-17T08:01:28.421Z,86.30
2018-03-17T08:03:58.737Z,85.67
2018-03-17T08:06:28.330Z,85.01
2018-03-17T08:08:58.057Z,86.14
2018-03-17T08:11:28.887Z,87.42
2018-03-17T08:13:58.591Z,86.26
2018-03-17T08:16:29.057Z,85.68
2018-03-17T08:18:59.111Z,86.15
2018-03-17T08:21:29.747Z,83.47
2018-03-17T08:24:05.431Z,84.33
2018-03-17T08:26:36.046Z,81.56
2018-03-17T08:29:06.105Z,79.02
2018-03-17T08:31:35.922Z,77.60
2018-03-17T08:34:06.334Z,74.10
2018-03-17T08:36:38.217Z,74.04
2018-03-17T08:39:08.174Z,70.12
2018-03-17T08:41:37.829Z,67.56
2018-03-17T08:44:08.271Z,68.55
2018-03-17T08:46:38.089Z,67.94
2018-03-17T08:49:07.823Z,69.16
2018-03-17T08:51:38.298Z,69.69
2018-03-17T08:54:10.921Z,70.01
2018-03-17T08:56:41.190Z,70.03
2018-03-17T08:59:12.267Z,67.90
2018-03-17T09:01:41.842Z,66.97
2018-03-17T09:04:12.436Z,65.37
2018-03-17T09:06:43.120Z,67.12
2018-03-17T09:09:13.473Z,65.02
2018-03-17T09:11:43.163Z,62.54
2018-03-17T09:14:13.632Z,64.14
2018-03-17T09:16:44.523Z,62.13
2018-03-17T09:19:15.639Z,61.36
2018-03-17T09:21:46.554Z,60.93
2018-03-17T09:24:16.722Z,58.57
2018-03-17T09:26:46.696Z,59.66
2018-03-17T09:29:23.328Z,62.06
2018-03-17T09:31:53.373Z,63.50
2018-03-17T09:34:23.616Z,64.92
2018-03-17T09:36:54.701Z,65.70
2018-03-17T09:39:25.186Z,68.44
2018-03-17T09:41:55.913Z,68.52
2018-03-17T09:44:26.811Z,65.55
2018-03-17T09:46:57.475Z,64.97
2018-03-17T09:49:27.971Z,65.24
2018-03-17T09:51:58.265Z,60.84
2018-03-17T09:54:29.916Z,61.91
2018-03-17T09:57:01.677Z,60.41
2018-03-17T09:59:31.305Z,61.25
2018-03-17T10:02:02.202Z,59.68
2018-03-17T10:04:31.876Z,60.87
2018-03-17T10:07:02.753Z,61.08
2018-03-17T10:09:32.502Z,62.11
2018-03-17T10:12:02.269Z,63.43
2018-03-17T10:14:32.082Z,63.32
2018-03-17T10:17:02.209Z,62.36
2018-03-17T10:19:31.729Z,61.67
2018-03-17T10:22:01.638Z,60.81
2018-03-17T10:24:31.554Z,60.01
2018-03-17T10:27:01.463Z,60.09
2018-03-17T10:29:31.178Z,60.14
2018-03-17T10:32:00.851Z,61.36
2018-03-17T10:34:30.475Z,63.62
2018-03-17T10:36:59.979Z,65.49
2018-03-17T10:39:29.610Z,62.90
2018-03-17T10:41:59.594Z,64.12
2018-03-17T10:44:31.401Z,61.96
2018-03-17T10:47:01.249Z,60.26
2018-03-17T10:49:31.587Z,58.96
2018-03-17T10:52:01.085Z,57.95
2018-03-17T10:54:30.798Z,57.37
2018-03-17T10:57:00.434Z,58.91
2018-03-17T10:59:30.253Z,60.90
2018-03-17T11:02:05.686Z,62.25
2018-03-17T11:04:42.084Z,62.06
2018-03-17T11:07:13.489Z,62.78
2018-03-17T11:09:42.993Z,61.34
2018-03-17T11:12:14.835Z,61.63
2018-03-17T11:14:44.509Z,60.15
2018-03-17T11:17:14.337Z,58.40
2018-03-17T11:19:44.251Z,57.71
2018-03-17T11:22:14.461Z,57.04
2018-03-17T11:24:44.979Z,57.54
2018-03-17T11:27:17.072Z,59.19
2018-03-17T11:29:47.537Z,62.32
2018-03-17T11:32:17.389Z,60.85
2018-03-17T11:34:47.325Z,59.54
2018-03-17T11:37:20.510Z,59.03
2018-03-17T11:39:50.774Z,58.06
2018-03-17T11:45:40.470Z,62.55
2018-03-17T11:48:10.329Z,61.77
2018-03-17T11:50:40.731Z,61.87
2018-03-17T11:53:10.600Z,61.86
2018-03-17T11:55:42.739Z,63.19
2018-03-17T11:58:19.477Z,62.46
2018-03-17T12:00:49.527Z,61.12
2018-03-17T12:03:19.520Z,61.60
2018-03-17T12:05:50.248Z,62.60
2018-03-17T12:08:20.214Z,61.98
2018-03-17T12:10:49.779Z,61.56
2018-03-17T12:13:19.731Z,62.43
2018-03-17T12:15:50.417Z,61.98
2018-03-17T12:18:21.833Z,62.04
2018-03-17T12:20:51.516Z,61.14
2018-03-17T12:23:21.119Z,59.67
2018-03-17T12:25:53.339Z,57.88
2018-03-17T12:28:23.833Z,57.70
2018-03-17T12:30:53.638Z,54.09
2018-03-17T12:33:23.168Z,53.62
2018-03-17T12:35:53.364Z,53.03
2018-03-17T12:38:23.285Z,53.60
2018-03-17T12:40:52.964Z,52.17
2018-03-17T12:43:23.320Z,53.68
2018-03-17T12:45:52.976Z,53.24
2018-03-17T12:48:23.668Z,54.18
2018-03-17T12:54:17.483Z,52.93
2018-03-17T12:56:47.076Z,54.02
2018-03-17T12:59:17.813Z,55.11
2018-03-17T13:01:49.019Z,61.05
2018-03-17T13:04:18.862Z,62.28
2018-03-17T13:06:48.459Z,66.19
2018-03-17T13:09:18.178Z,67.90
2018-03-17T13:11:48.490Z,65.82
2018-03-17T13:14:18.593Z,65.54
2018-03-17T13:16:48.947Z,64.15
2018-03-17T13:19:34.525Z,63.41
2018-03-17T13:22:05.297Z,64.92
2018-03-17T13:24:36.216Z,64.39
2018-03-17T13:27:23.961Z,62.73
2018-03-17T13:29:54.756Z,63.34
2018-03-17T13:32:42.399Z,62.80
2018-03-17T13:35:12.074Z,63.00
2018-03-17T13:37:41.817Z,61.70
2018-03-17T13:40:29.348Z,61.02
2018-03-17T13:42:59.360Z,58.62
2018-03-17T13:45:30.077Z,58.99
2018-03-17T13:47:59.863Z,58.07
2018-03-17T13:50:30.312Z,56.70
2018-03-17T13:53:00.221Z,57.00
2018-03-17T13:55:29.858Z,55.90
2018-03-17T13:58:00.329Z,55.27
2018-03-17T14:00:39.573Z,57.09
2018-03-17T14:03:11.375Z,55.36
2018-03-17T14:05:41.935Z,54.27
2018-03-17T14:08:12.983Z,54.25
2018-03-17T14:10:45.801Z,54.75
2018-03-17T14:13:16.487Z,54.04
2018-03-17T14:15:47.490Z,52.71
2018-03-17T14:18:17.448Z,50.76
2018-03-17T14:20:48.254Z,49.24
2018-03-17T14:23:19.930Z,49.72
2018-03-17T14:25:49.940Z,48.11
2018-03-17T14:28:20.156Z,47.33
2018-03-17T14:30:55.962Z,48.65
2018-03-17T14:33:26.656Z,49.37
2018-03-17T14:35:57.279Z,50.21
2018-03-17T14:38:27.968Z,49.87
2018-03-17T14:40:59.134Z,50.54
2018-03-17T14:43:29.791Z,51.80
2018-03-17T14:46:00.048Z,49.80
2018-03-17T14:48:30.537Z,50.53
2018-03-17T14:51:02.654Z,49.32
2018-03-17T14:53:33.097Z,48.71
2018-03-17T14:56:03.119Z,50.17
2018-03-17T14:58:33.537Z,48.50
2018-03-17T15:01:04.582Z,46.93
2018-03-17T15:03:37.167Z,48.58
2018-03-17T15:06:12.601Z,48.02
2018-03-17T15:08:42.574Z,47.92
2018-03-17T15:11:12.682Z,47.95
2018-03-17T15:13:43.388Z,46.72
2018-03-17T15:16:14.881Z,47.32
2018-03-17T15:18:46.121Z,46.41
2018-03-17T15:21:16.112Z,46.63
2018-03-17T15:23:46.381Z,47.80
2018-03-17T15:26:17.482Z,47.52
2018-03-17T15:28:47.874Z,48.11
2018-03-17T15:31:20.381Z,48.31
2018-03-17T15:33:50.256Z,48.26
2018-03-17T15:36:20.641Z,48.79
2018-03-17T15:38:51.199Z,48.64
2018-03-17T15:41:22.639Z,48.82
2018-03-17T15:43:53.886Z,48.69
2018-03-17T15:46:24.093Z,49.50
2018-03-17T15:48:54.004Z,49.45
2018-03-17T15:51:24.514Z,49.90
2018-03-17T15:53:54.218Z,49.66
2018-03-17T15:56:25.613Z,49.84
2018-03-17T15:58:56.358Z,49.98
2018-03-17T16:01:26.044Z,50.28
2018-03-17T16:03:55.647Z,51.46
2018-03-17T16:06:25.563Z,52.02
2018-03-17T16:08:57.042Z,52.26
2018-03-17T16:11:26.573Z,52.78
2018-03-17T16:13:56.849Z,53.20
2018-03-17T16:16:27.386Z,52.89
2018-03-17T16:18:56.860Z,53.58
2018-03-17T16:21:26.677Z,53.66
2018-03-17T16:23:57.474Z,54.07
2018-03-17T16:26:29.964Z,55.40
2018-03-17T16:29:00.452Z,56.13
2018-03-17T16:31:30.135Z,57.74
2018-03-17T16:33:59.695Z,58.26
2018-03-17T16:36:29.271Z,58.45
2018-03-17T16:38:59.087Z,57.06
2018-03-17T16:41:30.766Z,58.22
2018-03-17T16:44:14.946Z,59.51
2018-03-17T16:46:45.304Z,60.38
2018-03-17T16:49:14.777Z,60.46
2018-03-17T16:51:44.567Z,60.16
2018-03-17T16:54:14.189Z,60.56
2018-03-17T16:56:46.058Z,60.97
2018-03-17T16:59:17.709Z,61.33
2018-03-17T17:01:49.628Z,61.41
2018-03-17T17:04:19.374Z,61.20
2018-03-17T17:06:49.967Z,61.97
2018-03-17T17:09:20.604Z,62.35
2018-03-17T17:11:50.223Z,62.84
2018-03-17T17:14:21.159Z,63.97
2018-03-17T17:16:51.164Z,64.48
2018-03-17T17:19:20.821Z,65.28
2018-03-17T17:21:51.399Z,65.37
2018-03-17T17:24:22.036Z,66.33
2018-03-17T17:26:53.488Z,66.86
2018-03-17T17:29:25.703Z,67.41
2018-03-17T17:31:58.021Z,67.69
2018-03-17T17:34:27.566Z,68.22
2018-03-17T17:36:57.301Z,68.48
2018-03-17T17:39:27.402Z,68.73
2018-03-17T17:41:57.884Z,68.92
2018-03-17T17:44:27.481Z,68.92
2018-03-17T17:46:57.098Z,69.60
2018-03-17T17:49:26.921Z,69.71
2018-03-17T17:51:56.485Z,69.76
2018-03-17T17:54:29.166Z,70.14
2018-03-17T17:57:00.398Z,70.07
2018-03-17T17:59:30.887Z,69.87
2018-03-17T18:02:00.810Z,70.41
2018-03-17T18:04:30.934Z,70.28
2018-03-17T18:07:00.734Z,70.34
2018-03-17T18:09:31.788Z,70.59
2018-03-17T18:12:01.629Z,70.05
2018-03-17T18:14:31.529Z,69.41
2018-03-17T18:17:02.024Z,69.22
2018-03-17T18:19:32.100Z,69.53
2018-03-17T18:22:02.224Z,69.50
2018-03-17T18:24:33.135Z,69.18
2018-03-17T18:27:03.768Z,69.71
2018-03-17T18:29:34.533Z,69.86
2018-03-17T18:32:05.560Z,69.83
2018-03-17T18:34:36.286Z,69.67
2018-03-17T18:37:06.229Z,69.38
2018-03-17T18:39:36.817Z,69.75
2018-03-17T18:42:06.609Z,69.50
2018-03-17T18:44:37.528Z,68.86
2018-03-17T18:47:08.368Z,68.36
2018-03-17T18:49:38.269Z,67.10
2018-03-17T18:52:07.907Z,67.27
2018-03-17T18:54:37.565Z,67.99
2018-03-17T18:57:08.173Z,69.16
2018-03-17T18:59:37.958Z,69.95
2018-03-17T19:02:07.893Z,69.26
2018-03-17T19:04:37.420Z,70.30
2018-03-17T19:07:07.164Z,71.17
2018-03-17T19:09:37.605Z,71.82
2018-03-17T19:12:07.239Z,72.40
2018-03-17T19:14:36.870Z,72.97
2018-03-17T19:17:06.445Z,73.05
2018-03-17T19:19:36.092Z,73.84
2018-03-17T19:22:05.566Z,73.96
2018-03-17T19:24:35.091Z,74.04
2018-03-17T19:27:05.270Z,74.23
2018-03-17T19:29:35.819Z,74.71
2018-03-17T19:32:05.303Z,75.45
2018-03-17T19:34:35.840Z,75.69
2018-03-17T19:37:05.586Z,76.30
2018-03-17T19:39:35.088Z,76.50
2018-03-17T19:42:04.807Z,76.79
2018-03-17T19:44:35.487Z,77.29
2018-03-17T19:47:05.240Z,77.81
2018-03-17T19:49:34.852Z,78.59
2018-03-17T19:52:05.550Z,79.37
2018-03-17T19:54:36.021Z,79.89
2018-03-17T19:57:12.039Z,79.54
2018-03-17T19:59:49.984Z,79.51
2018-03-17T20:02:20.548Z,80.19
2018-03-17T20:04:50.828Z,80.54
2018-03-17T20:07:21.968Z,81.87
2018-03-17T20:09:53.168Z,82.96
2018-03-17T20:12:24.524Z,83.54
2018-03-17T20:14:55.545Z,84.66
2018-03-17T20:17:26.790Z,86.13
2018-03-17T20:19:56.972Z,86.41
2018-03-17T20:22:26.590Z,85.04
2018-03-17T20:25:12.892Z,85.41
2018-03-17T20:27:47.149Z,85.77
2018-03-17T20:30:17.427Z,87.38
2018-03-17T20:32:47.796Z,88.09
2018-03-17T20:35:19.918Z,88.11
2018-03-17T20:37:49.629Z,87.98
2018-03-17T20:40:19.638Z,88.17
2018-03-17T20:42:49.623Z,88.75
2018-03-17T20:45:21.944Z,89.23
2018-03-17T20:47:51.858Z,88.88
2018-03-17T20:50:21.630Z,89.24
2018-03-17T20:52:51.539Z,89.02
2018-03-17T20:55:22.722Z,89.07
2018-03-17T20:57:52.297Z,89.30
2018-03-17T21:00:21.904Z,89.29
2018-03-17T21:02:53.413Z,89.52
2018-03-17T21:05:29.064Z,89.02
2018-03-17T21:08:05.342Z,88.98
2018-03-17T21:10:35.314Z,88.07
2018-03-17T21:13:04.888Z,87.54
2018-03-17T21:15:35.347Z,87.37
2018-03-17T21:18:05.033Z,87.94
2018-03-17T21:20:35.431Z,87.86
2018-03-17T21:23:05.744Z,88.40
2018-03-17T21:25:35.441Z,87.95
2018-03-17T21:28:05.007Z,88.14
2018-03-17T21:30:35.001Z,88.40
2018-03-17T21:33:04.675Z,88.42
2018-03-17T21:35:35.139Z,88.88
2018-03-17T21:38:05.419Z,89.62
2018-03-17T21:40:35.544Z,89.79
2018-03-17T21:43:05.680Z,89.88
2018-03-17T21:45:35.422Z,89.77
2018-03-17T21:48:05.770Z,89.85
2018-03-17T21:50:35.385Z,90.31
2018-03-17T21:53:05.187Z,90.55
2018-03-17T21:55:35.749Z,91.13
2018-03-17T21:58:05.456Z,91.16
2018-03-17T22:00:35.030Z,91.00
2018-03-17T22:03:05.314Z,90.90
2018-03-17T22:05:35.499Z,90.89
2018-03-17T22:08:05.331Z,90.46
2018-03-17T22:10:34.795Z,90.24
2018-03-17T22:13:04.466Z,89.96
2018-03-17T22:15:34.139Z,90.16
2018-03-17T22:18:04.458Z,90.64
2018-03-17T22:20:34.460Z,90.75
2018-03-17T22:23:04.435Z,90.79
2018-03-17T22:25:36.119Z,91.27
2018-03-17T22:28:06.240Z,91.44
2018-03-17T22:30:37.289Z,91.95
2018-03-17T22:33:13.740Z,92.26
2018-03-17T22:35:45.649Z,92.38
2018-03-17T22:38:15.576Z,92.67
2018-03-17T22:40:45.380Z,92.99
2018-03-17T22:43:14.881Z,93.48
2018-03-17T22:45:45.154Z,93.59
2018-03-17T22:48:14.803Z,93.70
2018-03-17T22:50:44.641Z,93.88
2018-03-17T22:53:14.261Z,93.60
2018-03-17T22:55:43.759Z,93.59
2018-03-17T22:58:13.719Z,93.88
2018-03-17T23:00:44.015Z,94.15
2018-03-17T23:03:14.317Z,94.28
2018-03-17T23:05:49.115Z,94.34
2018-03-17T23:08:20.879Z,94.13
2018-03-17T23:10:50.412Z,94.00
2018-03-17T23:13:19.995Z,93.63
2018-03-17T23:15:49.671Z,93.64
2018-03-17T23:18:20.110Z,93.59
2018-03-17T23:20:50.436Z,93.43
2018-03-17T23:23:20.395Z,93.08
2018-03-17T23:25:49.914Z,93.05
2018-03-17T23:28:19.915Z,93.10
2018-03-17T23:30:50.058Z,93.20
2018-03-17T23:33:20.941Z,93.38
2018-03-17T23:35:51.909Z,93.51
2018-03-17T23:38:21.745Z,93.87
2018-03-17T23:40:51.277Z,93.95
2018-03-17T23:43:23.675Z,94.08
2018-03-17T23:45:53.365Z,94.29
2018-03-17T23:48:23.613Z,94.23
2018-03-17T23:50:53.564Z,94.42
2018-03-17T23:53:23.127Z,94.38
2018-03-17T23:55:53.094Z,94.67
2018-03-17T23:58:22.811Z,94.61
